Time;durP1;ratioP1;P1;durP2;ratioP2;P2;SDS_P1;SDS_P2;PMS_P1;PMS_P2;Temp;Humidity;BMP_temperature;BMP_pressure;BME280_temperature;BME280_humidity;BME280_pressure;Samples;Min_cycle;Max_cycle;Signal;HPM_P1;HPM_P2
2022/04/15 00:00:08;;;;;;;6.25;3.25;;;;;;;7.52;68.28;97563.06;5003625;28;20053;-60
2022/04/15 00:02:36;;;;;;;7.72;2.88;;;;;;;7.33;67.92;97543.47;5003818;28;20144;-58
2022/04/15 00:05:29;;;;;;;7.15;3.70;;;;;;;7.44;68.77;97561.22;5003445;28;20080;-57
2022/04/15 00:07:51;;;;;;;4.32;2.50;;;;;;;7.51;67.32;97560.66;5003066;28;20053;-61
2022/04/15 00:10:18;;;;;;;5.60;3.55;;;;;;;7.42;67.79;97563.50;5003105;28;20065;-59
2022/04/15 00:12:44;;;;;;;5.88;3.03;;;;;;;7.23;67.07;97527.38;5002016;28;20056;-61
2022/04/15 00:15:11;;;;;;;7.47;4.03;;;;;;;6.86;67.79;97480.69;5002857;28;20068;-61
2022/04/15 00:17:38;;;;;;;7.60;3.70;;;;;;;7.18;68.45;97557.88;5002864;28;20061;-58
2022/04/15 00:20:05;;;;;;;8.55;4.47;;;;;;;7.06;69.95;97557.00;5003223;28;20151;-62
2022/04/15 00:22:32;;;;;;;10.20;4.60;;;;;;;6.72;70.04;97515.94;5003051;28;20106;-59
2022/04/15 00:24:58;;;;;;;7.50;4.20;;;;;;;6.12;70.28;97403.47;5002937;28;20588;-57
2022/04/15 00:27:25;;;;;;;9.23;4.05;;;;;;;6.28;69.68;97395.44;5001661;28;20046;-61
2022/04/15 00:29:52;;;;;;;6.75;3.92;;;;;;;6.80;70.13;97480.06;5001703;28;20241;-57
2022/04/15 00:32:18;;;;;;;5.18;3.42;;;;;;;7.25;68.83;97551.81;5001847;28;20084;-59
2022/04/15 00:34:45;;;;;;;9.05;3.47;;;;;;;6.51;69.27;97427.03;5003289;28;20603;-61
2022/04/15 00:37:12;;;;;;;4.68;2.80;;;;;;;7.17;69.65;97539.72;5002884;28;20061;-58
2022/04/15 00:39:45;;;;;;;8.45;3.95;;;;;;;7.08;70.11;97541.72;5002961;28;20499;-57
2022/04/15 00:42:12;;;;;;;6.57;3.97;;;;;;;6.89;71.24;97524.84;5006653;28;20566;-61
2022/04/15 00:44:39;;;;;;;7.00;3.67;;;;;;;6.77;70.09;97505.50;5006628;28;20495;-61
2022/04/15 00:47:22;;;;;;;7.57;4.30;;;;;;;6.69;69.78;97473.34;4998975;28;20422;-61
2022/04/15 00:49:48;;;;;;;10.57;4.25;;;;;;;6.98;70.98;97536.63;4986814;28;20053;-61
2022/04/15 00:52:20;;;;;;;3.92;3.08;;;;;;;6.53;70.83;97464.06;4986571;28;20580;-57
2022/04/15 00:54:51;;;;;;;5.13;3.05;;;;;;;6.84;69.56;97513.25;4986379;28;20050;-61
2022/04/15 00:57:22;;;;;;;5.28;2.72;;;;;;;6.18;70.09;97418.63;4985713;28;20065;-60
2022/04/15 00:59:53;;;;;;;7.80;2.90;;;;;;;6.74;69.87;97503.44;4985850;28;20042;-61
2022/04/15 01:02:21;;;;;;;5.82;3.15;;;;;;;6.68;70.58;97493.75;4986837;28;20058;-61
2022/04/15 01:04:52;;;;;;;5.97;2.95;;;;;;;6.98;70.49;97524.81;4986308;28;20051;-61
2022/04/15 01:07:22;;;;;;;3.75;2.58;;;;;;;6.86;69.86;97517.25;4986659;28;20054;-57
2022/04/15 01:09:51;;;;;;;7.43;3.08;;;;;;;6.81;70.61;97542.22;4986622;28;20050;-58
2022/04/15 01:12:20;;;;;;;8.82;3.33;;;;;;;6.15;71.75;97457.81;4986644;28;20062;-61
2022/04/15 01:14:48;;;;;;;6.00;3.00;;;;;;;6.51;72.78;97510.41;4986023;28;20097;-61
2022/04/15 01:17:15;;;;;;;4.63;2.90;;;;;;;6.58;72.63;97524.41;4986527;28;20054;-59
2022/04/15 01:19:41;;;;;;;6.20;2.90;;;;;;;6.45;73.83;97530.97;4986469;28;20066;-60
2022/04/15 01:22:13;;;;;;;7.35;3.17;;;;;;;6.54;74.01;97526.25;4984354;28;20547;-62
2022/04/15 01:24:39;;;;;;;4.72;2.83;;;;;;;5.70;74.02;97396.25;4986130;28;20058;-61
2022/04/15 01:27:08;;;;;;;11.40;5.03;;;;;;;5.97;73.95;97461.81;4985987;28;20061;-60
2022/04/15 01:29:39;;;;;;;17.00;6.60;;;;;;;6.36;73.95;97524.69;4986244;28;20065;-61
2022/04/15 01:32:07;;;;;;;14.90;5.40;;;;;;;6.48;72.71;97527.53;4985816;28;20058;-58
2022/04/15 01:34:34;;;;;;;14.85;5.20;;;;;;;6.47;73.46;97517.69;4985679;28;20050;-60
2022/04/15 01:37:03;;;;;;;19.50;5.78;;;;;;;6.50;73.98;97529.97;4986190;28;20053;-58
2022/04/15 01:39:34;;;;;;;18.00;5.05;;;;;;;6.46;73.31;97518.84;4986081;28;20454;-58
2022/04/15 01:42:02;;;;;;;15.15;6.03;;;;;;;6.40;73.20;97514.66;4984315;28;20064;-57
2022/04/15 01:44:29;;;;;;;10.50;4.75;;;;;;;6.44;73.23;97504.59;4985591;28;20050;-61
2022/04/15 01:46:55;;;;;;;9.45;4.00;;;;;;;6.29;73.23;97496.91;4991310;28;20049;-61
2022/04/15 01:49:22;;;;;;;9.57;3.80;;;;;;;6.30;73.43;97515.03;5005189;28;20060;-57
2022/04/15 01:51:48;;;;;;;8.90;3.97;;;;;;;6.28;74.52;97511.78;5004894;28;20072;-59
2022/04/15 01:54:15;;;;;;;7.50;3.75;;;;;;;6.32;74.08;97515.50;5005316;28;20054;-62
2022/04/15 01:56:42;;;;;;;9.00;3.67;;;;;;;6.31;74.36;97511.13;5005003;28;20058;-61
2022/04/15 01:59:09;;;;;;;8.10;3.58;;;;;;;6.23;74.81;97498.22;5004819;28;20061;-58
2022/04/15 02:01:36;;;;;;;6.47;3.05;;;;;;;6.29;74.58;97568.44;5004964;28;20054;-62
2022/04/15 02:04:03;;;;;;;7.00;3.25;;;;;;;5.66;75.78;97428.25;5004755;28;20053;-58
2022/04/15 02:06:30;;;;;;;7.10;3.10;;;;;;;6.23;75.51;97509.22;5005121;28;20061;-58
2022/04/15 02:08:57;;;;;;;4.32;2.70;;;;;;;6.21;76.22;97506.03;5005121;28;20057;-58
2022/04/15 02:11:23;;;;;;;8.32;4.05;;;;;;;6.26;75.09;97510.53;5003589;28;20050;-61
2022/04/15 02:13:50;;;;;;;7.70;4.20;;;;;;;6.18;75.80;97512.16;5003354;28;20053;-61
2022/04/15 02:16:16;;;;;;;14.75;6.10;;;;;;;5.95;74.30;97464.06;5004753;28;20073;-57
2022/04/15 02:18:43;;;;;;;7.40;4.55;;;;;;;6.14;74.99;97505.72;5004773;28;20062;-57
2022/04/15 02:21:10;;;;;;;8.57;4.55;;;;;;;6.11;75.42;97507.19;5004345;28;20049;-62
2022/04/15 02:23:36;;;;;;;8.23;3.50;;;;;;;6.02;74.14;97491.88;5004498;28;20117;-58
2022/04/15 02:26:03;;;;;;;6.95;3.40;;;;;;;5.78;74.63;97459.44;5004581;28;20549;-57
2022/04/15 02:28:30;;;;;;;6.20;3.60;;;;;;;6.02;75.07;97491.88;5004624;28;20045;-58
2022/04/15 02:30:56;;;;;;;13.70;5.25;;;;;;;5.94;76.13;97495.47;5004376;28;20057;-62
2022/04/15 02:33:23;;;;;;;9.38;4.53;;;;;;;5.86;76.64;97504.53;5004452;28;20046;-61
2022/04/15 02:35:50;;;;;;;8.60;5.15;;;;;;;5.87;77.07;97489.66;5004493;28;20057;-58
2022/04/15 02:38:16;;;;;;;14.23;8.35;;;;;;;2.91;76.44;97015.13;5002629;28;20050;-62
2022/04/15 02:40:44;;;;;;;14.02;7.63;;;;;;;5.89;76.12;97492.88;5003992;28;20057;-60
2022/04/15 02:43:11;;;;;;;8.38;5.55;;;;;;;5.82;77.33;97484.31;5004361;28;20132;-61
2022/04/15 02:45:37;;;;;;;7.65;3.65;;;;;;;5.90;76.91;97491.72;5004092;28;20319;-60
2022/04/15 02:48:05;;;;;;;6.60;3.30;;;;;;;5.48;76.99;97438.53;4987922;28;20058;-61
2022/04/15 02:50:31;;;;;;;7.15;3.08;;;;;;;5.58;76.70;97486.81;4984798;28;20058;-58
2022/04/15 02:52:59;;;;;;;6.78;3.45;;;;;;;5.97;77.46;97564.31;4984577;28;20066;-62
2022/04/15 02:55:27;;;;;;;7.03;3.53;;;;;;;5.48;76.45;97422.03;4984068;28;20090;-59
2022/04/15 02:57:53;;;;;;;8.60;4.55;;;;;;;5.92;75.98;97487.53;4982739;28;20050;-58
2022/04/15 03:00:20;;;;;;;13.80;6.45;;;;;;;5.57;75.01;97435.72;4984381;28;20046;-61
2022/04/15 03:02:47;;;;;;;121.53;48.08;;;;;;;5.38;75.42;97416.06;4982586;28;20057;-61
2022/04/15 03:05:13;;;;;;;117.78;49.42;;;;;;;5.28;75.53;97405.47;4982827;28;20058;-59
2022/04/15 03:07:40;;;;;;;128.90;55.40;;;;;;;5.84;76.00;97501.31;4983059;28;20061;-61
2022/04/15 03:10:08;;;;;;;87.15;39.50;;;;;;;5.73;76.89;97489.03;4999104;28;20576;-62
2022/04/15 03:12:39;;;;;;;30.30;15.30;;;;;;;4.93;77.67;97421.19;4999068;28;20058;-60
2022/04/15 03:15:09;;;;;;;19.52;9.10;;;;;;;5.63;77.44;97505.84;4998550;28;20061;-58
2022/04/15 03:17:35;;;;;;;15.68;7.47;;;;;;;5.52;78.17;97490.84;4983788;28;20058;-61
2022/04/15 03:20:04;;;;;;;10.70;5.40;;;;;;;5.12;78.03;97415.34;4982584;28;20481;-62
2022/04/15 03:22:38;;;;;;;10.23;5.25;;;;;;;5.25;78.05;97450.06;4984247;28;20496;-61
2022/04/15 03:25:07;;;;;;;10.02;4.45;;;;;;;5.64;77.80;97491.00;4983969;28;20120;-59
2022/04/15 03:27:34;;;;;;;14.57;6.00;;;;;;;5.64;77.67;97493.75;4984267;28;20062;-62
2022/04/15 03:30:01;;;;;;;12.10;6.43;;;;;;;5.47;78.35;97474.56;4984654;28;20429;-57
2022/04/15 03:32:28;;;;;;;12.20;4.97;;;;;;;4.97;78.60;97407.59;4982641;28;20061;-59
2022/04/15 03:34:56;;;;;;;11.10;4.40;;;;;;;5.49;78.60;97484.06;4983733;28;20058;-58
2022/04/15 03:37:23;;;;;;;10.40;4.53;;;;;;;5.08;78.74;97439.06;4984155;28;20081;-58
2022/04/15 03:39:50;;;;;;;9.02;4.00;;;;;;;5.53;78.37;97484.25;4983246;28;20054;-64
2022/04/15 03:42:16;;;;;;;7.93;3.88;;;;;;;5.17;78.21;97426.16;4983912;28;20054;-64
2022/04/15 03:44:43;;;;;;;9.43;4.10;;;;;;;5.49;78.20;97486.00;4983850;28;21122;-58
2022/04/15 03:47:10;;;;;;;10.88;4.75;;;;;;;5.10;79.41;97431.31;4989357;28;20060;-64
2022/04/15 03:49:36;;;;;;;12.32;3.97;;;;;;;5.10;80.33;97475.25;5003085;28;20053;-60
2022/04/15 03:52:04;;;;;;;6.50;3.75;;;;;;;4.94;80.17;97432.97;5003008;28;20046;-59
2022/04/15 03:54:30;;;;;;;8.38;4.25;;;;;;;5.35;80.33;97494.44;5001762;28;20046;-64
2022/04/15 03:56:57;;;;;;;10.68;5.03;;;;;;;5.53;78.91;97484.25;5003398;28;20069;-58
2022/04/15 03:59:24;;;;;;;11.95;4.60;;;;;;;5.51;79.66;97487.31;5004251;28;20186;-61
2022/04/15 04:01:50;;;;;;;12.52;5.05;;;;;;;5.56;79.12;97495.38;5002319;28;20057;-58
2022/04/15 04:04:17;;;;;;;15.25;6.38;;;;;;;5.70;77.83;97489.69;5003652;28;20054;-60
2022/04/15 04:06:44;;;;;;;33.35;13.07;;;;;;;5.67;76.75;97501.34;5003529;28;20616;-58
2022/04/15 04:09:10;;;;;;;17.60;8.77;;;;;;;5.69;77.02;97488.06;5003275;28;20513;-59
2022/04/15 04:11:37;;;;;;;9.63;6.07;;;;;;;5.60;77.23;97495.53;5003311;28;20566;-63
2022/04/15 04:14:03;;;;;;;7.20;4.75;;;;;;;5.65;77.69;97498.91;5003045;28;20060;-64
2022/04/15 04:16:30;;;;;;;7.88;4.70;;;;;;;5.65;78.10;97520.91;5004203;28;20493;-58
2022/04/15 04:18:57;;;;;;;16.35;6.72;;;;;;;5.68;77.91;97483.69;5007063;28;20046;-59
2022/04/15 04:21:23;;;;;;;16.15;8.68;;;;;;;5.49;76.47;97453.84;5006959;28;20046;-58
2022/04/15 04:23:51;;;;;;;13.07;7.07;;;;;;;5.67;76.82;97468.34;5006892;28;20061;-60
2022/04/15 04:26:18;;;;;;;18.85;7.57;;;;;;;6.11;76.98;97500.88;5006584;28;20050;-63
2022/04/15 04:28:44;;;;;;;18.85;7.47;;;;;;;6.34;76.44;97504.97;5006539;28;20508;-64
2022/04/15 04:31:11;;;;;;;16.27;8.77;;;;;;;6.41;75.72;97486.00;5006046;28;20061;-60
2022/04/15 04:33:38;;;;;;;19.73;9.63;;;;;;;6.54;74.93;97490.47;5005093;28;20108;-63
2022/04/15 04:36:05;;;;;;;15.50;10.13;;;;;;;6.39;73.59;97471.75;5006242;28;20117;-60
2022/04/15 04:38:31;;;;;;;28.23;12.30;;;;;;;7.06;73.15;97501.91;5006256;28;20521;-64
2022/04/15 04:40:58;;;;;;;23.98;7.28;;;;;;;7.17;72.54;97506.66;5006262;28;20053;-63
2022/04/15 04:43:25;;;;;;;11.25;5.65;;;;;;;7.26;72.24;97510.16;5006853;28;20053;-60
2022/04/15 04:45:52;;;;;;;9.75;4.82;;;;;;;6.91;71.41;97428.97;5006648;28;20061;-61
2022/04/15 04:48:18;;;;;;;11.88;6.78;;;;;;;7.65;70.60;97504.09;4990598;28;20057;-59
2022/04/15 04:50:46;;;;;;;12.05;5.15;;;;;;;7.89;69.38;97506.09;4985303;28;20113;-61
2022/04/15 04:53:12;;;;;;;9.55;5.68;;;;;;;8.06;68.34;97499.59;4986847;28;20046;-63
2022/04/15 04:55:39;;;;;;;12.82;5.63;;;;;;;7.97;68.43;97499.69;4990304;28;20058;-58
2022/04/15 04:58:06;;;;;;;10.00;4.78;;;;;;;8.08;68.78;97519.38;4986911;28;20065;-63
2022/04/15 05:00:32;;;;;;;15.95;5.35;;;;;;;8.33;68.06;97493.44;4985601;28;20092;-60
2022/04/15 05:03:00;;;;;;;12.13;5.90;;;;;;;8.56;66.25;97497.34;4987024;28;20089;-64
2022/04/15 05:05:27;;;;;;;16.98;6.95;;;;;;;8.71;66.82;97494.69;4986385;28;20054;-63
2022/04/15 05:07:54;;;;;;;10.85;5.63;;;;;;;8.93;65.87;97504.44;4986504;28;20065;-62
2022/04/15 05:10:22;;;;;;;11.15;5.13;;;;;;;9.08;65.84;97492.66;4986009;28;20147;-60
2022/04/15 05:12:49;;;;;;;11.20;4.78;;;;;;;9.21;64.57;97497.00;4986269;28;20529;-63
2022/04/15 05:15:15;;;;;;;8.50;3.72;;;;;;;9.40;64.13;97493.59;4986206;28;20440;-64
2022/04/15 05:17:42;;;;;;;7.60;4.38;;;;;;;9.61;64.51;97500.50;4986050;28;20521;-63
2022/04/15 05:20:09;;;;;;;13.57;5.82;;;;;;;9.98;62.09;97488.09;4986518;28;20058;-62
2022/04/15 05:22:35;;;;;;;12.45;6.03;;;;;;;10.10;60.54;97467.88;4986435;28;20054;-59
2022/04/15 05:25:04;;;;;;;15.05;5.97;;;;;;;10.11;59.61;97437.06;4985986;28;20054;-64
2022/04/15 05:27:32;;;;;;;22.38;7.38;;;;;;;10.00;59.23;97429.63;4985235;28;20062;-60
2022/04/15 05:29:58;;;;;;;11.45;5.68;;;;;;;10.78;58.81;97482.19;4986251;28;20054;-64
2022/04/15 05:32:25;;;;;;;12.02;7.13;;;;;;;11.01;58.72;97485.88;4986576;28;20050;-59
2022/04/15 05:34:52;;;;;;;11.98;6.68;;;;;;;10.85;57.96;97482.34;4985689;28;20061;-64
2022/04/15 05:37:18;;;;;;;15.55;7.32;;;;;;;10.73;57.78;97443.69;4985922;28;20054;-60
2022/04/15 05:39:45;;;;;;;15.85;7.07;;;;;;;11.41;57.02;97484.38;4985529;28;20073;-59
2022/04/15 05:42:12;;;;;;;12.77;7.07;;;;;;;11.58;57.43;97477.59;4986317;28;20434;-60
2022/04/15 05:44:41;;;;;;;16.67;10.27;;;;;;;11.74;57.38;97464.47;4985954;28;20053;-60
2022/04/15 05:47:08;;;;;;;11.15;6.70;;;;;;;11.91;55.66;97453.69;4991474;28;20628;-58
2022/04/15 05:49:35;;;;;;;13.98;7.07;;;;;;;11.89;54.35;97455.22;5004934;28;20100;-59
2022/04/15 05:52:02;;;;;;;18.25;7.38;;;;;;;12.32;54.48;97481.78;5003518;28;20065;-64
2022/04/15 05:54:29;;;;;;;19.20;6.65;;;;;;;12.39;55.79;97463.28;5004929;28;20073;-63
2022/04/15 05:56:56;;;;;;;11.48;7.00;;;;;;;12.26;56.33;97424.94;5004499;28;20055;-60
2022/04/15 05:59:23;;;;;;;16.17;6.45;;;;;;;12.26;56.20;97406.31;4998746;28;20054;-64
2022/04/15 06:01:51;;;;;;;12.63;6.10;;;;;;;12.76;55.63;97461.47;5003039;28;20052;-58
2022/04/15 06:04:18;;;;;;;11.35;6.95;;;;;;;12.90;55.25;97456.13;5002990;28;20050;-64
2022/04/15 06:06:47;;;;;;;16.80;7.50;;;;;;;12.92;54.81;97459.31;5003506;28;20060;-59
2022/04/15 06:09:14;;;;;;;17.70;7.80;;;;;;;13.06;55.03;97461.53;5005041;28;20046;-58
2022/04/15 06:11:41;;;;;;;15.70;7.03;;;;;;;13.36;53.84;97457.56;5005136;28;20053;-58
2022/04/15 06:14:08;;;;;;;13.00;6.32;;;;;;;13.22;53.40;97412.88;5005144;28;20050;-59
2022/04/15 06:16:37;;;;;;;12.98;5.63;;;;;;;13.66;53.44;97454.75;5004552;28;20061;-64
2022/04/15 06:19:05;;;;;;;14.40;6.68;;;;;;;13.75;53.27;97474.75;5004953;28;20058;-64
2022/04/15 06:21:49;;;;;;;13.40;5.85;;;;;;;13.87;53.01;97437.47;4997397;28;20133;-64
2022/04/15 06:24:15;;;;;;;10.30;5.45;;;;;;;13.56;52.67;97317.06;5000441;28;20057;-58
2022/04/15 06:26:42;;;;;;;8.82;4.95;;;;;;;14.58;50.12;97451.72;4997284;28;20050;-61
2022/04/15 06:29:14;;;;;;;7.03;5.10;;;;;;;14.85;49.72;97449.53;5002712;28;20045;-64
2022/04/15 06:31:40;;;;;;;8.65;5.85;;;;;;;15.30;48.56;97454.56;5003858;28;20057;-58
2022/04/15 06:34:07;;;;;;;8.98;5.80;;;;;;;13.73;47.84;97153.34;5003642;28;20513;-64
2022/04/15 06:36:34;;;;;;;8.13;5.10;;;;;;;15.49;47.63;97390.06;4998265;28;20046;-59
2022/04/15 06:39:00;;;;;;;9.68;4.78;;;;;;;16.20;45.53;97444.91;4997545;28;20069;-60
2022/04/15 06:41:27;;;;;;;8.00;4.75;;;;;;;16.38;43.80;97442.94;5001726;28;20061;-68
2022/04/15 06:43:54;;;;;;;7.78;4.90;;;;;;;15.55;44.72;97416.44;5001383;28;20552;-63
2022/04/15 06:46:20;;;;;;;6.53;5.15;;;;;;;15.88;45.93;97418.94;5000601;28;20144;-61
2022/04/15 06:48:47;;;;;;;4.75;3.92;;;;;;;16.37;45.53;97446.97;4992666;28;20050;-61
2022/04/15 06:51:14;;;;;;;4.85;4.07;;;;;;;15.90;43.05;97405.34;5008960;28;20053;-60
2022/04/15 06:53:40;;;;;;;6.05;4.88;;;;;;;16.46;43.07;97441.78;5006548;28;20496;-58
2022/04/15 06:56:10;;;;;;;4.10;3.70;;;;;;;16.23;43.20;97379.81;5002130;28;20058;-62
2022/04/15 06:58:37;;;;;;;3.90;3.53;;;;;;;16.70;42.47;97433.78;4813754;28;5001101;-59
2022/04/15 07:01:04;;;;;;;5.03;4.13;;;;;;;16.33;42.42;97443.34;5003394;28;20057;-61
2022/04/15 07:03:31;;;;;;;4.63;3.92;;;;;;;16.12;42.34;97418.16;5002257;28;20050;-63
2022/04/15 07:05:57;;;;;;;4.80;3.78;;;;;;;16.43;42.34;97436.16;5002766;28;20060;-63
2022/04/15 07:08:24;;;;;;;4.45;3.63;;;;;;;16.63;42.46;97436.59;5001594;28;20057;-62
2022/04/15 07:10:51;;;;;;;7.35;3.78;;;;;;;16.84;41.33;97436.56;4999616;28;20142;-61
2022/04/15 07:13:17;;;;;;;5.40;4.07;;;;;;;16.21;42.15;97432.56;5002520;28;20049;-61
2022/04/15 07:15:44;;;;;;;4.38;3.65;;;;;;;16.13;42.26;97430.94;4987734;28;20058;-57
2022/04/15 07:18:11;;;;;;;5.95;4.03;;;;;;;16.69;40.75;97440.59;4996210;28;20049;-59
2022/04/15 07:20:37;;;;;;;5.72;3.67;;;;;;;16.70;41.02;97425.41;5000856;28;20065;-60
2022/04/15 07:23:04;;;;;;;4.68;4.00;;;;;;;16.79;40.95;97387.41;5002369;28;20057;-63
2022/04/15 07:25:31;;;;;;;4.43;4.03;;;;;;;17.08;40.30;97421.75;5002551;28;20095;-65
2022/04/15 07:27:59;;;;;;;6.43;3.90;;;;;;;17.13;39.11;97405.34;4999566;28;20060;-63
2022/04/15 07:30:27;;;;;;;4.10;3.33;;;;;;;17.08;38.13;97362.94;4997558;28;20100;-63
2022/04/15 07:32:54;;;;;;;7.72;3.45;;;;;;;17.75;37.52;97419.53;4995831;28;20092;-62
2022/04/15 07:35:20;;;;;;;4.60;3.30;;;;;;;17.65;38.17;97392.34;4999342;28;20053;-62
2022/04/15 07:37:47;;;;;;;4.30;3.53;;;;;;;17.94;37.62;97411.41;4997491;28;20049;-65
2022/04/15 07:40:14;;;;;;;4.55;3.78;;;;;;;17.94;37.84;97410.63;4999497;28;20493;-65
2022/04/15 07:42:41;;;;;;;8.10;3.85;;;;;;;18.16;37.98;97428.91;4991304;28;20069;-59
2022/04/15 07:45:08;;;;;;;7.50;4.90;;;;;;;18.43;37.71;97409.50;5001125;28;20081;-66
2022/04/15 07:47:35;;;;;;;5.78;4.43;;;;;;;18.30;36.63;97372.72;5002678;28;20440;-64
2022/04/15 07:50:21;;;;;;;8.13;4.68;;;;;;;18.41;36.86;97409.91;4998997;28;20141;-60
2022/04/15 07:52:49;;;;;;;4.63;3.65;;;;;;;16.69;36.05;97108.50;5002627;28;20143;-68
2022/04/15 07:55:16;;;;;;;3.72;3.42;;;;;;;18.34;36.92;97389.47;5005098;28;20053;-68
2022/04/15 07:57:43;;;;;;;3.88;3.28;;;;;;;18.03;36.95;97396.94;5004215;28;20062;-64
2022/04/15 08:00:11;;;;;;;3.72;3.53;;;;;;;18.33;36.37;97411.16;5003539;28;20202;-57
2022/04/15 08:02:37;;;;;;;4.38;3.80;;;;;;;18.34;36.48;97407.13;5002751;28;20049;-64
2022/04/15 08:05:04;;;;;;;4.45;3.65;;;;;;;18.42;35.96;97408.69;5005824;28;20402;-58
2022/04/15 08:07:31;;;;;;;4.00;3.60;;;;;;;18.00;35.60;97291.22;4998098;28;20050;-59
2022/04/15 08:09:58;;;;;;;4.07;3.70;;;;;;;18.77;35.22;97402.78;5005789;28;20530;-65
2022/04/15 08:12:24;;;;;;;3.75;3.45;;;;;;;18.90;35.08;97395.44;5006105;28;20053;-59
2022/04/15 08:14:56;;;;;;;3.60;3.30;;;;;;;19.17;34.82;97381.53;5001348;28;20061;-66
2022/04/15 08:17:22;;;;;;;3.88;3.47;;;;;;;19.52;34.86;97375.50;5002143;28;20069;-57
2022/04/15 08:19:49;;;;;;;4.38;4.00;;;;;;;19.80;34.01;97388.38;4997620;28;20101;-65
2022/04/15 08:22:16;;;;;;;7.53;3.80;;;;;;;19.68;34.82;97389.72;5004105;28;20058;-61
2022/04/15 08:24:45;;;;;;;5.32;3.90;;;;;;;19.26;34.52;97385.44;5003230;28;20077;-60
2022/04/15 08:27:12;;;;;;;4.90;4.00;;;;;;;18.46;35.18;97344.97;5003476;28;20112;-57
2022/04/15 08:29:39;;;;;;;4.03;3.67;;;;;;;18.93;35.51;97360.91;5005702;28;20057;-65
2022/04/15 08:32:08;;;;;;;3.90;3.45;;;;;;;18.93;35.05;97377.78;4997809;28;20092;-60
2022/04/15 08:34:38;;;;;;;6.28;3.45;;;;;;;19.12;35.15;97363.13;4999190;28;20180;-62
2022/04/15 08:37:05;;;;;;;4.43;4.05;;;;;;;19.21;35.18;97321.28;5006113;28;20069;-59
2022/04/15 08:39:32;;;;;;;3.78;3.45;;;;;;;19.85;34.86;97365.41;5004395;28;20431;-62
2022/04/15 08:41:59;;;;;;;4.22;3.83;;;;;;;19.58;35.73;97360.53;5004916;28;20061;-65
2022/04/15 08:44:25;;;;;;;5.95;4.22;;;;;;;18.62;35.33;97260.22;4999229;28;20129;-62
2022/04/15 08:46:52;;;;;;;7.57;4.40;;;;;;;19.60;34.79;97331.25;4996120;28;20097;-61
2022/04/15 08:49:20;;;;;;;5.13;4.03;;;;;;;19.56;34.38;97275.06;4997396;28;20056;-58
2022/04/15 08:51:49;;;;;;;4.15;3.75;;;;;;;20.34;33.89;97345.00;4999158;28;20073;-57
2022/04/15 08:54:18;;;;;;;3.60;3.30;;;;;;;20.68;33.42;97339.97;5003829;28;20054;-56
2022/04/15 08:56:44;;;;;;;4.85;4.25;;;;;;;20.15;33.64;97238.81;4995363;28;20053;-66
2022/04/15 08:59:11;;;;;;;5.55;3.80;;;;;;;20.48;33.72;97336.31;5004939;28;20448;-63
2022/04/15 09:01:38;;;;;;;6.05;3.88;;;;;;;19.55;33.84;97240.53;5005101;28;20588;-60
2022/04/15 09:04:04;;;;;;;5.78;4.10;;;;;;;19.97;33.14;97241.91;5003324;28;20066;-66
2022/04/15 09:06:32;;;;;;;4.55;4.15;;;;;;;20.82;33.44;97331.28;5001787;28;20054;-59
2022/04/15 09:08:59;;;;;;;4.55;4.00;;;;;;;20.96;32.70;97317.75;4999576;28;20050;-59
2022/04/15 09:11:40;;;;;;;8.88;5.93;;;;;;;21.16;32.53;97322.59;4996795;28;20501;-71
2022/04/15 09:14:12;;;;;;;4.22;3.92;;;;;;;21.30;32.04;97327.94;4996521;28;20050;-66
2022/04/15 09:16:47;;;;;;;5.43;4.97;;;;;;;20.98;32.44;97232.81;5002248;28;20065;-58
2022/04/15 09:19:15;;;;;;;4.65;4.15;;;;;;;21.64;31.85;97317.94;4997930;28;20046;-67
2022/04/15 09:21:50;;;;;;;7.38;4.75;;;;;;;21.51;32.10;97302.13;5002853;28;20513;-57
2022/04/15 09:24:17;;;;;;;5.40;4.72;;;;;;;21.67;32.12;97317.06;4998491;28;20062;-69
2022/04/15 09:26:48;;;;;;;6.10;4.95;;;;;;;21.18;32.47;97273.06;5000899;28;20162;-58
2022/04/15 09:29:15;;;;;;;4.75;4.40;;;;;;;21.36;32.66;97301.66;5003697;28;20592;-57
2022/04/15 09:31:45;;;;;;;5.15;4.75;;;;;;;21.69;32.64;97303.31;4999792;28;20493;-60
2022/04/15 09:34:12;;;;;;;5.40;4.88;;;;;;;22.04;31.93;97313.03;5000925;28;20053;-58
2022/04/15 09:36:39;;;;;;;6.65;4.78;;;;;;;21.59;31.97;97298.72;4997011;28;20108;-61
2022/04/15 09:39:17;;;;;;;7.38;6.15;;;;;;;21.75;31.81;97289.53;5003026;28;20137;-66
2022/04/15 09:41:54;;;;;;;8.50;5.80;;;;;;;21.78;31.20;97291.50;5002567;28;20079;-57
2022/04/15 09:44:31;;;;;;;5.82;5.20;;;;;;;21.94;31.59;97283.06;5004444;28;20049;-69
2022/04/15 09:47:03;;;;;;;5.10;4.53;;;;;;;22.44;31.24;97275.75;5002520;28;20050;-59
2022/04/15 09:49:34;;;;;;;5.70;5.20;;;;;;;21.08;32.06;97257.16;5002002;28;20061;-66
2022/04/15 09:52:03;;;;;;;4.97;4.68;;;;;;;21.74;31.86;97249.22;5004012;28;20445;-56
2022/04/15 09:54:31;;;;;;;5.55;4.60;;;;;;;22.07;31.54;97261.34;4999338;28;20046;-68
2022/04/15 09:56:59;;;;;;;4.50;4.10;;;;;;;22.61;31.38;97267.25;4996615;28;20054;-65
2022/04/15 09:59:29;;;;;;;7.15;4.93;;;;;;;22.77;31.13;97259.53;5001662;28;20616;-59
2022/04/15 10:01:58;;;;;;;7.93;5.00;;;;;;;22.74;30.19;97260.44;5004350;28;20424;-65
2022/04/15 10:04:25;;;;;;;5.82;5.30;;;;;;;22.70;30.33;97259.72;5002565;28;20046;-58
2022/04/15 10:06:53;;;;;;;6.10;5.50;;;;;;;21.33;31.49;97189.78;5003804;28;20064;-59
2022/04/15 10:09:21;;;;;;;11.05;6.93;;;;;;;21.14;32.29;97255.41;5001781;28;20480;-58
2022/04/15 10:11:49;;;;;;;5.28;4.50;;;;;;;21.49;31.64;97251.84;4995140;28;20050;-58
2022/04/15 10:14:18;;;;;;;5.32;4.82;;;;;;;20.97;32.23;97132.66;5003532;28;20057;-59
2022/04/15 10:16:44;;;;;;;6.90;4.32;;;;;;;21.74;31.96;97243.59;4996817;28;20064;-59
2022/04/15 10:19:11;;;;;;;4.75;4.32;;;;;;;22.23;32.01;97238.78;5002088;28;20050;-70
2022/04/15 10:21:44;;;;;;;5.80;4.55;;;;;;;22.77;30.91;97236.94;5002134;28;20045;-62
2022/04/15 10:24:11;;;;;;;4.97;4.57;;;;;;;22.13;31.42;97220.88;5002413;28;20050;-65
2022/04/15 10:26:44;;;;;;;5.53;3.92;;;;;;;21.13;32.01;97207.97;5004454;28;20073;-66
2022/04/15 10:29:11;;;;;;;5.15;4.70;;;;;;;21.99;32.93;97226.88;5002472;28;20050;-57
2022/04/15 10:31:46;;;;;;;4.93;4.53;;;;;;;22.20;31.90;97181.19;5002838;28;20085;-60
2022/04/15 10:34:14;;;;;;;5.10;4.80;;;;;;;22.51;30.80;97217.50;5001779;28;20050;-59
2022/04/15 10:36:52;;;;;;;5.13;4.43;;;;;;;21.74;31.79;97215.38;5000595;28;20056;-59
2022/04/15 10:39:25;;;;;;;4.07;3.73;;;;;;;21.48;31.65;97165.66;4995500;28;20417;-65
2022/04/15 10:41:57;;;;;;;4.18;3.83;;;;;;;22.18;30.89;97206.25;5004090;28;20061;-67
2022/04/15 10:44:25;;;;;;;4.70;4.30;;;;;;;22.59;31.15;97201.97;5002366;28;20058;-58
2022/04/15 10:46:52;;;;;;;4.10;3.80;;;;;;;22.91;31.49;97182.06;5003367;28;20057;-68
2022/04/15 10:49:26;;;;;;;4.72;4.30;;;;;;;23.18;30.20;97188.13;5001986;28;20598;-59
2022/04/15 10:52:16;;;;;;;5.88;4.22;;;;;;;22.76;31.51;97184.53;5000456;28;20054;-58
2022/04/15 10:54:48;;;;;;;5.25;4.38;;;;;;;22.52;31.35;97185.22;4994650;28;20061;-60
2022/04/15 10:57:17;;;;;;;4.47;4.00;;;;;;;22.66;31.07;97184.81;5003158;28;20053;-65
2022/04/15 11:02:45;;;;;;;5.20;4.70;;;;;;;22.73;31.50;97178.97;5003336;28;20049;-64
2022/04/15 11:05:14;;;;;;;5.05;4.53;;;;;;;23.06;30.56;97174.75;5001595;28;20068;-61
2022/04/15 11:07:50;;;;;;;5.50;4.72;;;;;;;23.14;30.73;97171.25;5002715;28;20050;-58
2022/04/15 11:10:40;;;;;;;4.32;3.92;;;;;;;22.49;31.03;97173.53;5003546;28;20057;-58
2022/04/15 11:13:24;;;;;;;7.53;4.70;;;;;;;22.49;31.25;97100.13;4998984;28;20057;-60
2022/04/15 11:15:57;;;;;;;4.90;4.50;;;;;;;22.56;30.73;97152.03;5000004;28;20422;-67
2022/04/15 11:18:41;;;;;;;4.70;4.30;;;;;;;22.69;31.29;97161.31;5001266;28;20073;-60
2022/04/15 11:21:35;;;;;;;4.38;3.97;;;;;;;22.87;31.74;97161.59;5002956;28;20050;-58
2022/04/15 11:24:09;;;;;;;4.95;4.45;;;;;;;23.17;30.76;97163.94;4999196;28;20773;-59
2022/04/15 11:26:38;;;;;;;4.63;4.25;;;;;;;23.33;30.82;97155.38;4996756;28;20056;-60
2022/04/15 11:29:07;;;;;;;4.75;4.35;;;;;;;23.23;31.15;97153.63;5001428;28;20385;-67
2022/04/15 11:31:37;;;;;;;4.25;3.95;;;;;;;22.48;31.26;97116.75;4993754;28;20054;-61
2022/04/15 11:34:03;;;;;;;4.57;4.20;;;;;;;22.74;32.27;97141.00;4990763;28;20509;-64
2022/04/15 11:36:32;;;;;;;4.53;4.10;;;;;;;22.44;31.16;97049.88;5001868;28;20054;-61
2022/04/15 11:39:01;;;;;;;10.90;4.47;;;;;;;22.57;31.46;97120.53;5001940;28;20053;-64
2022/04/15 11:41:28;;;;;;;5.28;4.45;;;;;;;22.82;32.70;97119.78;5001704;28;20316;-60